The Eastern Iowa Airport
KCID : now visible

Airfield :











YOU CAN JOIN US ON...

 
LOGIN :

Register | Disclaimer

   EN    FR    IT 

 









Legend :    VFR   Marginal VFR   IFR   Intensive IFR   Very Intensive IFR
Visi :
Ceiling :
>= 8 km
>= 3000ft
5 to 8 km
1000 to 3000 ft
1500m to 5 km
500 to 1000 ft
800 to 1500m
200 to 500 ft
< 800m
< 200 ft
Symbols :   Thunderstorms  Fog  Heavy snow  Heavy precipitations  Wind > 20 kt






- Airport Elevation : 869 ft
- IATA code : CID


KCID - The Eastern Iowa

CURRENT METAR :
  • 280452Z AUTO 00000KT 10SM BKN060 BKN080 19/19 A2987 RMK AO2 SLP111 T01940189

EXPIRED METARs :
  • 280352Z 05003KT 10SM FEW090 20/19 A2987 RMK AO2 SLP110 T02000194
  • 280252Z 00000KT 10SM CLR 20/19 A2987 RMK AO2 SLP109 T02000194 53005

TAF KCID
Valid from the 28 at 00:00 until the 29 at 00:00 UTC


280011Z 2800/2824 15007KT P6SM -SHRA SCT025 BKN035
FM280200 VRB03KT P6SM BKN090
FM280800 VRB03KT P6SM -SHRA OVC017
FM281000 VRB03KT 3SM -RA BR OVC007
FM281500 33006KT 4SM RA BR OVC008
KZAU FIR / North America



MET'MAP, your aeronautical weather chart ! - Copyright ORBIFLY December 2007 - Disclaimer

ORBIFLY MET'MAP TEAM :

Programming & Development : Alexandra Zaïnal
Concept & original design : Baudouin d'Aumeries
Assistance for programming : Marc-Olivier Méhu
Technical & hardware support : Manuel Goepfert

Contact : metmap@orbifly.com




SOURCES & CREDITS :

   NOAA       Earth
Advisory